Rotterdam, Netherlands

10:02 AM CET on February 28, 2017 (GMT +0100)
Rotterdam | | Change Station

Elev 13 ft 51.95 °N, 4.45 °E | Updated 7 minutes ago

Overcast
Overcast
41 °F
Feels Like 32 °F
N
18
Wind Variable Wind from SSW

Today
High -- | Low -- °F
--% Chance of Precip.
Yesterday
High -- | Low -- °F
Precip. -- in
Pressure 29.15 in
Visibility 6.2 miles
Clouds Mostly Cloudy 1300 ft
Overcast 1600 ft
Windchill 32 °F
Dew Point 37 °F
Humidity 87%
Rainfall 0.00 in
Snow Depth Not available.
7:29 AM 6:20 PM
Waxing Crescent, 4% visible
METAR EHRD 280855Z AUTO 21016KT 160V250 9999 BKN013 OVC016 05/03 Q0987 TEMPO 7000 -SHRA
Pressure 29.15 in
Visibility 6.2 miles
Clouds Mostly Cloudy 1300 ft
Overcast 1600 ft
Windchill 32 °F
Dew Point 37 °F
Humidity 87%
Rainfall 0.00 in
Snow Depth Not available.
7:29 AM 6:20 PM
Waxing Crescent, 4% visible
METAR EHRD 280855Z AUTO 21016KT 160V250 9999 BKN013 OVC016 05/03 Q0987 TEMPO 7000 -SHRA

Get Your Daily Forecast Email!

Thanks for signing up!

Be on the lookout for a verification email in your inbox.

You'll start receiving the daily forecast at 8 AM.

×

10-Day Weather Forecast

×

Almanac

Astronomy

Feb. 28, 2017 Rise Set
Actual Time
Civil Twilight
Nautical Twilight
Astronomical Twilight
Moon
Length of Visible Light
Length of Day
Tomorrow will be .
, % of the Moon is Illuminated

Today's Extremes

Country Highs Country Lows

Community

WunderPhotos

Upload Photos

1,962,540 photos uploaded!

WunderBlog® & News

Nearby

Air Quality

  Air Quality AQ Index Pollutant
Not available.

Snow Depth

Station Depth Elevation

Earthquake Activity

City Distance Mag. Time & Date
Minimum magnitude displayed is 2.5.

Coastal Water Temperatures

Place Temperature

Stations

Nearby Weather Stations

Station Location Temp. Windchill Dew Point Humidity Wind Precip. Elev Updated Type